Time;durP1;ratioP1;P1;durP2;ratioP2;P2;SDS_P1;SDS_P2;PMS_P1;PMS_P2;Temp;Humidity;BMP_temperature;BMP_pressure;BME280_temperature;BME280_humidity;BME280_pressure;Samples;Min_cycle;Max_cycle;Signal;HPM_P1;HPM_P2
2024/01/28 00:03:32;;;;;;;3.63;1.70;;;;;;;20.75;45.43;101913.22;41536679;28;20087;-73
2024/01/28 00:23:33;;;;;;;3.78;1.42;;;;;;;20.72;45.32;101925.69;41511506;28;20056;-73
2024/01/28 00:43:33;;;;;;;2.60;1.63;;;;;;;20.66;45.60;101934.69;41507201;28;20049;-73
2024/01/28 01:03:34;;;;;;;1.88;1.40;;;;;;;20.59;45.78;101946.47;41499247;28;20064;-73
2024/01/28 01:23:34;;;;;;;3.10;1.80;;;;;;;20.58;45.58;101965.81;41475376;28;20137;-72
2024/01/28 01:43:35;;;;;;;1.70;1.20;;;;;;;20.53;45.93;101973.09;41550378;28;20068;-72
2024/01/28 02:03:36;;;;;;;1.90;1.50;;;;;;;20.55;45.53;101969.44;41569967;28;20069;-73
2024/01/28 02:23:37;;;;;;;3.63;1.50;;;;;;;20.52;45.72;101977.50;41621371;28;20045;-74
2024/01/28 02:43:37;;;;;;;2.70;1.30;;;;;;;20.55;45.49;102003.66;41530798;28;20050;-73
2024/01/28 03:03:37;;;;;;;2.65;1.17;;;;;;;20.51;45.55;102012.66;41503121;28;20076;-73
2024/01/28 03:23:38;;;;;;;1.70;1.20;;;;;;;20.48;45.51;102016.28;41522714;28;20062;-72
2024/01/28 03:43:39;;;;;;;1.83;1.20;;;;;;;20.42;45.29;102034.13;41522951;28;20057;-73
2024/01/28 04:03:39;;;;;;;1.30;1.20;;;;;;;20.40;45.20;102034.22;41508183;28;20045;-73
2024/01/28 04:23:40;;;;;;;2.17;1.00;;;;;;;20.34;45.82;102044.19;41545171;28;20125;-73
2024/01/28 04:43:41;;;;;;;1.98;1.35;;;;;;;20.29;45.42;102052.28;41547871;28;20067;-73
2024/01/28 05:03:41;;;;;;;2.85;1.27;;;;;;;20.26;45.60;102070.84;41506363;28;20103;-73
2024/01/28 05:23:42;;;;;;;1.67;1.15;;;;;;;20.96;44.35;102086.84;41518290;28;20590;-72
2024/01/28 05:43:42;;;;;;;1.88;1.48;;;;;;;21.27;43.75;102107.19;41519761;28;20052;-73
2024/01/28 06:03:43;;;;;;;3.05;2.28;;;;;;;21.44;43.19;102134.50;41505407;28;20124;-72
2024/01/28 06:23:44;;;;;;;3.85;3.03;;;;;;;21.58;43.56;102149.63;41520259;28;20049;-73
2024/01/28 06:43:45;;;;;;;6.07;4.07;;;;;;;21.63;43.29;102155.53;41499098;28;20051;-73
2024/01/28 07:03:47;;;;;;;7.05;4.15;;;;;;;21.75;43.48;102170.72;41507073;28;20037;-73
2024/01/28 07:23:47;;;;;;;11.38;6.45;;;;;;;21.85;45.47;102189.56;41531798;28;20046;-75
2024/01/28 07:43:48;;;;;;;7.10;5.75;;;;;;;21.81;44.84;102195.91;41518956;28;20046;-69
2024/01/28 08:03:49;;;;;;;7.80;6.10;;;;;;;21.98;45.54;102212.66;41462024;28;20053;-73
2024/01/28 08:23:50;;;;;;;12.57;7.15;;;;;;;21.97;45.88;102237.31;41483835;28;20046;-71
2024/01/28 08:43:50;;;;;;;14.32;6.03;;;;;;;21.90;45.82;102245.53;41470661;28;20041;-72
2024/01/28 09:03:51;;;;;;;14.55;4.13;;;;;;;20.42;35.26;102278.81;41483447;28;20129;-75
2024/01/28 09:23:52;;;;;;;5.20;3.42;;;;;;;21.63;38.09;102287.34;41473631;28;20038;-73
2024/01/28 09:43:54;;;;;;;8.55;3.67;;;;;;;21.53;39.59;102310.66;41470801;28;20037;-73
2024/01/28 10:03:55;;;;;;;7.43;3.10;;;;;;;21.95;40.36;102310.38;41495735;28;20034;-74
2024/01/28 10:23:55;;;;;;;6.00;3.10;;;;;;;22.16;40.65;102296.13;41494554;28;20503;-74
2024/01/28 10:44:08;;;;;;;7.53;2.78;;;;;;;22.30;41.27;102274.31;41492301;28;23758;-73
2024/01/28 11:04:08;;;;;;;7.18;2.95;;;;;;;22.23;39.07;102265.84;41358352;28;20046;-73
2024/01/28 11:24:10;;;;;;;17.40;9.27;;;;;;;22.83;41.14;102256.53;41531144;28;20033;-75
2024/01/28 11:44:11;;;;;;;16.25;7.15;;;;;;;23.17;41.95;102236.19;41530082;28;20046;-76
2024/01/28 12:04:13;;;;;;;10.73;6.15;;;;;;;23.43;42.40;102238.28;41486720;28;20033;-74
2024/01/28 12:24:13;;;;;;;12.18;5.60;;;;;;;23.41;42.87;102232.22;41499571;28;20049;-74
2024/01/28 12:44:16;;;;;;;8.32;4.60;;;;;;;23.24;41.64;102222.63;41472602;28;20378;-70
2024/01/28 13:04:17;;;;;;;7.43;4.00;;;;;;;23.13;40.97;102210.84;41473668;28;20096;-71
2024/01/28 13:24:18;;;;;;;5.68;3.10;;;;;;;23.16;38.70;102233.59;41483886;28;20512;-71
2024/01/28 13:44:18;;;;;;;4.53;3.08;;;;;;;23.00;38.33;102223.06;41535997;28;20140;-73
2024/01/28 14:04:20;;;;;;;23.17;6.05;;;;;;;22.95;40.22;102220.66;41507928;28;20049;-72
2024/01/28 14:24:20;;;;;;;17.85;5.75;;;;;;;22.93;40.65;102213.78;41530257;28;20496;-76
2024/01/28 14:44:21;;;;;;;40.95;12.30;;;;;;;22.88;41.55;102229.88;41519420;28;20061;-75
2024/01/28 15:04:21;;;;;;;27.75;9.45;;;;;;;22.69;42.41;102241.47;41505802;28;20519;-71
2024/01/28 15:24:22;;;;;;;14.43;5.30;;;;;;;22.12;36.25;102247.09;41497652;28;20405;-74
2024/01/28 15:44:22;;;;;;;46.65;9.98;;;;;;;22.66;39.14;102256.63;41519747;28;20044;-73
2024/01/28 16:04:22;;;;;;;57.53;11.63;;;;;;;22.19;41.14;102277.50;41534976;28;20121;-69
2024/01/28 16:24:23;;;;;;;43.47;10.13;;;;;;;22.14;41.10;102291.84;41491230;28;20050;-74
2024/01/28 16:44:23;;;;;;;28.55;7.50;;;;;;;21.98;40.80;102320.78;41506514;28;20045;-73
2024/01/28 17:04:24;;;;;;;36.80;7.70;;;;;;;21.63;40.81;102316.34;41511721;28;20038;-76
2024/01/28 17:24:24;;;;;;;23.10;7.72;;;;;;;21.99;41.98;102330.44;41546118;28;20050;-74
2024/01/28 17:44:27;;;;;;;22.13;7.75;;;;;;;22.01;43.40;102341.75;41509251;28;20037;-75
2024/01/28 18:04:29;;;;;;;23.25;7.28;;;;;;;21.90;43.47;102358.97;41475726;28;20165;-74
2024/01/28 18:24:30;;;;;;;23.90;6.93;;;;;;;21.95;44.25;102377.19;41505112;28;20042;-74
2024/01/28 18:44:33;;;;;;;34.92;11.68;;;;;;;22.22;47.28;102388.16;41533404;28;20048;-79
2024/01/28 19:04:35;;;;;;;26.77;10.82;;;;;;;22.23;47.32;102396.94;41497606;28;20052;-79
2024/01/28 19:24:36;;;;;;;21.65;9.05;;;;;;;22.30;48.31;102413.31;41526501;28;20042;-80
2024/01/28 19:44:38;;;;;;;30.60;10.25;;;;;;;22.39;49.56;102420.81;41502337;28;20103;-76
2024/01/28 20:04:47;;;;;;;18.42;8.98;;;;;;;22.06;48.87;102442.63;41523654;28;20153;-78
2024/01/28 20:24:54;;;;;;;20.75;8.90;;;;;;;22.02;47.98;102456.88;41353228;28;20046;-76
2024/01/28 20:44:55;;;;;;;20.02;10.50;;;;;;;21.78;46.47;102470.31;41396307;28;20073;-72
2024/01/28 21:04:56;;;;;;;16.42;9.48;;;;;;;21.76;46.69;102469.53;41509461;28;20057;-73
2024/01/28 21:24:56;;;;;;;15.98;9.05;;;;;;;21.72;47.18;102500.44;41474058;28;20740;-73
2024/01/28 21:44:58;;;;;;;13.75;8.07;;;;;;;21.60;47.46;102508.94;41497402;28;20033;-72
2024/01/28 22:04:59;;;;;;;11.40;7.03;;;;;;;21.59;47.01;102533.56;41527016;28;20050;-75
2024/01/28 22:24:59;;;;;;;11.57;7.07;;;;;;;21.52;46.95;102545.28;41533750;28;20497;-73
2024/01/28 22:44:59;;;;;;;11.93;7.13;;;;;;;21.46;47.21;102558.75;41498621;28;20138;-73
2024/01/28 23:05:07;;;;;;;10.65;6.68;;;;;;;21.48;47.34;102559.53;41507863;28;20496;-73
2024/01/28 23:25:07;;;;;;;8.27;6.25;;;;;;;21.39;47.41;102547.63;41476183;28;20038;-73
2024/01/28 23:45:11;;;;;;;7.88;5.72;;;;;;;21.38;47.40;102546.75;41486152;28;20045;-73
